Time;durP1;ratioP1;P1;durP2;ratioP2;P2;SDS_P1;SDS_P2;PMS_P1;PMS_P2;Temp;Humidity;BMP_temperature;BMP_pressure;BME280_temperature;BME280_humidity;BME280_pressure;Samples;Min_cycle;Max_cycle;Signal;HPM_P1;HPM_P2
2022/01/30 00:01:40;;;;;;;27.83;8.27;;;;;;;5.75;86.19;101085.31;5075808;28;20048;-64
2022/01/30 00:04:08;;;;;;;29.17;6.93;;;;;;;5.76;85.88;101088.78;5076044;28;20037;-65
2022/01/30 00:06:39;;;;;;;31.20;8.32;;;;;;;5.75;86.16;101094.75;5075987;28;20032;-64
2022/01/30 00:09:17;;;;;;;28.02;7.28;;;;;;;5.74;85.61;101100.69;5091788;28;20089;-65
2022/01/30 00:11:46;;;;;;;28.17;7.90;;;;;;;5.74;86.06;101104.13;5074995;28;20127;-64
2022/01/30 00:14:15;;;;;;;18.92;6.85;;;;;;;5.73;86.07;101102.34;5076073;28;20032;-64
2022/01/30 00:16:41;;;;;;;26.33;6.60;;;;;;;5.72;85.65;101095.44;5075690;28;20041;-63
2022/01/30 00:19:24;;;;;;;28.83;7.43;;;;;;;5.71;85.80;101093.66;5075847;28;20043;-63
2022/01/30 00:22:00;;;;;;;32.42;6.82;;;;;;;5.68;85.80;101096.09;5075098;28;20032;-64
2022/01/30 00:24:46;;;;;;;27.25;6.10;;;;;;;5.69;85.66;101095.28;5075737;28;20036;-63
2022/01/30 00:27:17;;;;;;;23.83;6.30;;;;;;;5.68;85.85;101095.22;5075532;28;20047;-64
2022/01/30 00:29:46;;;;;;;18.95;6.28;;;;;;;5.67;86.18;101104.63;5058056;28;20380;-64
2022/01/30 00:32:11;;;;;;;32.90;7.63;;;;;;;5.64;86.22;101105.31;5057550;28;20534;-64
2022/01/30 00:34:36;;;;;;;22.40;5.85;;;;;;;5.65;85.44;101113.94;5091349;28;20024;-64
2022/01/30 00:37:04;;;;;;;34.22;8.50;;;;;;;5.64;85.77;101107.91;5074138;28;20064;-64
2022/01/30 00:39:36;;;;;;;29.00;7.53;;;;;;;5.63;85.63;101115.53;5074234;28;20039;-63
2022/01/30 00:42:04;;;;;;;25.60;7.93;;;;;;;5.61;85.82;101114.56;5057502;28;20135;-64
2022/01/30 00:44:32;;;;;;;22.38;7.85;;;;;;;5.60;85.63;101112.81;5075261;28;20035;-64
2022/01/30 00:46:58;;;;;;;27.23;7.93;;;;;;;5.62;85.51;101111.19;5075656;28;20119;-64
2022/01/30 00:49:26;;;;;;;21.23;5.93;;;;;;;5.59;85.84;101111.94;5073992;28;20357;-64
2022/01/30 00:51:59;;;;;;;19.77;6.43;;;;;;;5.59;85.72;101119.66;5074213;28;20037;-64
2022/01/30 00:54:25;;;;;;;28.80;7.22;;;;;;;5.59;85.66;101121.31;5074966;28;20392;-64
2022/01/30 00:56:50;;;;;;;21.17;6.47;;;;;;;5.57;85.76;101116.09;5074998;28;20044;-64
2022/01/30 00:59:16;;;;;;;21.33;5.72;;;;;;;5.56;85.59;101113.44;5075189;28;20062;-64
2022/01/30 01:01:43;;;;;;;26.15;6.47;;;;;;;5.56;85.52;101108.28;5074738;28;20044;-63
2022/01/30 01:04:09;;;;;;;21.90;7.40;;;;;;;5.57;85.78;101120.34;5074336;28;20119;-63
2022/01/30 01:06:40;;;;;;;23.30;7.15;;;;;;;5.54;85.57;101115.94;5073609;28;20041;-64
2022/01/30 01:09:07;;;;;;;28.65;7.55;;;;;;;5.55;85.61;101112.56;5074793;28;20032;-64
2022/01/30 01:20:56;;;;;;;30.83;6.90;;;;;;;5.51;85.18;101118.34;5074520;28;20483;-64
2022/01/30 01:25:16;;;;;;;25.90;7.28;;;;;;;5.50;85.28;101134.56;5074625;28;20036;-63
2022/01/30 01:27:41;;;;;;;32.95;8.32;;;;;;;5.48;85.47;101138.75;5056714;28;20032;-63
2022/01/30 01:30:07;;;;;;;25.17;8.10;;;;;;;5.49;85.27;101127.66;5074360;28;20055;-64
2022/01/30 01:32:35;;;;;;;21.52;6.35;;;;;;;5.47;85.45;101135.28;5073139;28;20036;-64
2022/01/30 01:35:04;;;;;;;25.98;5.97;;;;;;;5.49;85.70;101136.25;5056736;28;20032;-64
2022/01/30 01:37:29;;;;;;;24.67;6.78;;;;;;;5.48;85.53;101138.75;5072794;28;20119;-64
2022/01/30 01:39:58;;;;;;;28.52;6.25;;;;;;;5.49;85.03;101141.41;5074056;28;20143;-64
2022/01/30 01:42:26;;;;;;;25.40;7.72;;;;;;;5.47;85.46;101137.88;5089716;28;20040;-64
2022/01/30 01:44:56;;;;;;;26.58;7.43;;;;;;;5.47;85.45;101143.00;5074066;28;20036;-63
2022/01/30 01:47:29;;;;;;;25.92;6.75;;;;;;;5.47;84.88;101143.00;5073804;28;20116;-63
2022/01/30 01:50:00;;;;;;;26.52;5.95;;;;;;;5.45;85.61;101147.19;5056393;28;20085;-63
2022/01/30 01:52:31;;;;;;;19.42;6.82;;;;;;;5.46;85.52;101153.19;5072794;28;20128;-63
2022/01/30 01:54:58;;;;;;;23.70;6.63;;;;;;;5.46;85.65;101145.47;5056100;28;20396;-63
2022/01/30 01:57:26;;;;;;;16.77;5.95;;;;;;;5.45;85.46;101152.31;5073865;28;20039;-63
2022/01/30 01:59:59;;;;;;;24.38;6.78;;;;;;;5.46;85.38;101153.19;5055850;28;20032;-63
2022/01/30 02:02:25;;;;;;;21.25;7.45;;;;;;;5.44;85.23;101150.56;5073797;28;20051;-64
2022/01/30 02:04:57;;;;;;;23.40;6.93;;;;;;;5.45;85.43;101167.75;5073805;28;20060;-64
2022/01/30 02:10:03;;;;;;;18.95;5.82;;;;;;;5.45;85.19;101161.75;5072600;28;20395;-64
2022/01/30 02:28:08;;;;;;;19.40;6.75;;;;;;;5.42;85.76;101154.72;5110382;28;20047;-64
2022/01/30 02:30:41;;;;;;;25.58;8.63;;;;;;;5.41;85.70;101158.09;5093202;28;20040;-65
2022/01/30 02:33:06;;;;;;;20.90;6.30;;;;;;;5.42;85.36;101151.28;5092917;28;20040;-64
2022/01/30 02:35:34;;;;;;;23.00;6.05;;;;;;;5.41;85.48;101152.06;5110315;28;20391;-64
2022/01/30 02:38:01;;;;;;;21.48;7.13;;;;;;;5.41;85.50;101154.66;5126847;28;20039;-64
2022/01/30 02:40:29;;;;;;;25.85;6.75;;;;;;;5.41;85.39;101154.66;5110940;28;20165;-63
2022/01/30 02:42:55;;;;;;;28.17;7.22;;;;;;;5.38;85.09;101151.91;5093241;28;20044;-64
2022/01/30 02:45:24;;;;;;;18.40;5.95;;;;;;;5.37;85.00;101158.75;5109643;28;20395;-63
2022/01/30 02:51:07;;;;;;;25.25;6.75;;;;;;;5.38;85.12;101160.50;5111079;28;20032;-63
2022/01/30 02:53:38;;;;;;;25.60;6.53;;;;;;;5.38;85.18;101160.50;5092389;28;20479;-64
2022/01/30 02:56:07;;;;;;;23.15;6.05;;;;;;;5.38;85.00;101159.63;5110748;28;20078;-64
2022/01/30 02:58:33;;;;;;;22.40;6.20;;;;;;;5.37;85.07;101151.03;5111401;28;20143;-64
2022/01/30 03:01:01;;;;;;;24.85;6.68;;;;;;;5.36;84.87;101156.06;5111220;28;20115;-63
2022/01/30 03:03:27;;;;;;;22.33;5.43;;;;;;;5.37;85.14;101157.84;5109508;28;20074;-64
2022/01/30 03:05:52;;;;;;;17.88;5.97;;;;;;;5.37;85.48;101153.59;5110734;28;20067;-64
2022/01/30 03:08:17;;;;;;;19.65;6.93;;;;;;;5.39;85.10;101156.25;5109429;28;20491;-64
2022/01/30 03:10:48;;;;;;;23.77;6.85;;;;;;;5.35;85.09;101155.19;5110403;28;20032;-64
2022/01/30 03:13:16;;;;;;;19.95;5.95;;;;;;;5.34;85.24;101162.00;5108988;28;20044;-65
2022/01/30 03:15:47;;;;;;;24.75;6.70;;;;;;;5.32;84.98;101167.88;5092059;28;20035;-64
2022/01/30 03:18:15;;;;;;;18.45;5.97;;;;;;;5.34;85.24;101163.72;5110267;28;20059;-64
2022/01/30 03:20:41;;;;;;;18.95;5.32;;;;;;;5.33;84.81;101164.50;5110196;28;20039;-64
2022/01/30 03:23:07;;;;;;;24.60;5.50;;;;;;;5.31;84.90;101173.81;5108871;28;20394;-64
2022/01/30 03:25:36;;;;;;;22.25;6.80;;;;;;;5.31;84.93;101174.69;5099550;28;20032;-63
2022/01/30 03:28:04;;;;;;;25.30;6.80;;;;;;;5.31;85.01;101174.69;5078654;28;20036;-64
2022/01/30 03:30:30;;;;;;;16.88;5.28;;;;;;;5.33;85.36;101167.09;5095157;28;20126;-64
2022/01/30 03:35:08;;;;;;;27.40;5.68;;;;;;;5.30;84.91;101183.19;5111514;27;20245;-63
2022/01/30 03:37:36;;;;;;;24.65;7.40;;;;;;;5.28;84.78;101179.69;5111391;28;20431;-64
2022/01/30 03:40:02;;;;;;;21.00;6.38;;;;;;;5.29;84.68;101181.47;5111337;28;20061;-64
2022/01/30 03:42:27;;;;;;;21.30;6.78;;;;;;;5.31;84.93;101184.97;5111247;28;20036;-64
2022/01/30 03:44:55;;;;;;;22.13;6.13;;;;;;;5.29;85.32;101184.03;5110190;28;20023;-64
2022/01/30 03:47:24;;;;;;;27.25;7.47;;;;;;;5.28;85.37;101191.63;5111200;28;20040;-63
2022/01/30 03:49:50;;;;;;;21.83;5.82;;;;;;;5.29;84.93;101201.13;5092948;28;20039;-63
2022/01/30 03:52:16;;;;;;;18.88;6.70;;;;;;;5.30;85.25;101202.91;5111183;28;20201;-64
2022/01/30 03:54:45;;;;;;;22.98;6.40;;;;;;;5.30;84.65;101202.91;5110921;28;20028;-64
2022/01/30 03:57:13;;;;;;;20.40;6.80;;;;;;;5.31;84.45;101199.53;5110732;28;20044;-63
2022/01/30 03:59:41;;;;;;;20.17;6.65;;;;;;;5.32;85.37;101211.59;5092985;28;20036;-63
2022/01/30 04:02:07;;;;;;;19.27;5.90;;;;;;;5.32;84.99;101211.59;5092741;28;20122;-63
2022/01/30 04:04:33;;;;;;;22.00;6.30;;;;;;;5.31;84.81;101222.66;5110870;28;20131;-64
2022/01/30 04:07:01;;;;;;;19.55;6.15;;;;;;;5.31;85.12;101222.66;5109625;28;20114;-64
2022/01/30 04:09:27;;;;;;;21.15;6.30;;;;;;;5.32;84.82;101227.00;5092383;28;20036;-64
2022/01/30 04:11:54;;;;;;;20.50;5.40;;;;;;;5.31;85.25;101223.53;5110896;28;20050;-64
2022/01/30 04:14:20;;;;;;;23.25;6.32;;;;;;;5.30;84.85;101223.47;5092667;28;20043;-63
2022/01/30 04:16:50;;;;;;;17.40;5.97;;;;;;;5.32;84.63;101229.59;5109332;28;20036;-64
2022/01/30 04:19:18;;;;;;;19.38;5.78;;;;;;;5.34;84.87;101231.44;5110500;28;20122;-63
2022/01/30 04:21:46;;;;;;;25.85;6.47;;;;;;;5.33;84.46;101239.06;5092287;28;20059;-63
2022/01/30 04:24:15;;;;;;;24.58;6.70;;;;;;;5.32;84.91;101237.28;5111004;28;20047;-63
2022/01/30 04:26:43;;;;;;;19.50;6.63;;;;;;;5.33;84.67;101239.06;5110438;28;20036;-64
2022/01/30 04:29:08;;;;;;;20.75;6.05;;;;;;;5.32;84.65;101233.03;5110388;28;20077;-64
2022/01/30 04:31:34;;;;;;;21.45;5.53;;;;;;;5.31;85.14;101230.38;5110291;28;20039;-64
2022/01/30 04:34:00;;;;;;;23.10;6.70;;;;;;;5.30;84.85;101236.31;5109869;28;20055;-64
2022/01/30 04:36:31;;;;;;;30.25;6.93;;;;;;;5.29;84.76;101232.88;5110288;28;20130;-64
2022/01/30 04:39:10;;;;;;;16.27;5.45;;;;;;;5.30;84.86;101236.31;5109062;28;20067;-64
2022/01/30 05:05:38;;;;;;;21.40;6.10;;;;;;;5.28;84.78;101235.34;5096122;28;20055;-64
2022/01/30 05:08:05;;;;;;;20.65;6.93;;;;;;;5.28;84.35;101235.34;5096075;28;20514;-65
2022/01/30 05:10:31;;;;;;;20.92;6.32;;;;;;;5.28;85.33;101245.63;5096253;28;20177;-64
2022/01/30 05:12:58;;;;;;;19.38;5.88;;;;;;;5.29;84.63;101249.97;5094764;28;20158;-65
2022/01/30 05:15:27;;;;;;;16.15;5.47;;;;;;;5.29;85.19;101257.69;5095774;28;20036;-64
2022/01/30 05:17:53;;;;;;;24.10;6.40;;;;;;;5.31;84.42;101256.09;5077784;28;20115;-64
2022/01/30 05:20:18;;;;;;;17.83;6.25;;;;;;;5.29;84.53;101263.72;5095874;28;20178;-64
2022/01/30 05:22:44;;;;;;;17.77;5.82;;;;;;;5.30;85.14;101268.03;5095689;28;20032;-64
2022/01/30 05:25:10;;;;;;;25.42;5.75;;;;;;;5.30;84.56;101268.03;5094581;28;20119;-64
2022/01/30 05:27:36;;;;;;;20.30;6.82;;;;;;;5.28;85.31;101263.63;5094452;28;20039;-64
2022/01/30 05:30:03;;;;;;;18.60;5.85;;;;;;;5.27;84.82;101267.88;5094465;28;20032;-64
2022/01/30 05:32:29;;;;;;;16.75;5.30;;;;;;;5.27;84.44;101267.88;5094308;28;20032;-64
2022/01/30 05:34:57;;;;;;;19.33;5.95;;;;;;;5.26;84.68;101270.34;5094162;28;20051;-64
2022/01/30 05:37:22;;;;;;;17.85;6.05;;;;;;;5.25;84.28;101271.16;5095436;28;20040;-63
2022/01/30 05:39:51;;;;;;;27.15;7.50;;;;;;;5.23;84.79;101265.03;5095785;28;20032;-63
2022/01/30 05:42:23;;;;;;;27.58;7.50;;;;;;;5.22;84.60;101268.41;5095604;28;20067;-63
2022/01/30 05:45:07;;;;;;;18.38;6.60;;;;;;;5.21;84.95;101275.22;5094398;28;20372;-64
2022/01/30 05:47:41;;;;;;;33.00;7.20;;;;;;;5.20;84.32;101278.59;5077098;28;20036;-64
2022/01/30 05:50:07;;;;;;;26.92;7.32;;;;;;;5.17;85.13;101278.41;5093671;28;20089;-64
2022/01/30 05:52:35;;;;;;;20.55;6.28;;;;;;;5.17;84.50;101284.47;5094244;28;20036;-64
2022/01/30 05:55:08;;;;;;;20.08;5.65;;;;;;;5.19;84.82;101281.97;5095119;28;20032;-64
2022/01/30 05:57:35;;;;;;;18.98;5.93;;;;;;;5.20;84.58;101288.00;5076240;28;20039;-63
2022/01/30 06:01:32;;;;;;;24.23;6.32;;;;;;;5.18;84.36;101290.47;5131977;27;20841;-63
2022/01/30 06:04:05;;;;;;;27.52;7.70;;;;;;;5.18;84.46;101290.47;5131790;28;20118;-64
2022/01/30 06:06:31;;;;;;;20.65;7.00;;;;;;;5.18;84.29;101290.47;5113525;28;20032;-64
2022/01/30 06:09:12;;;;;;;20.15;6.10;;;;;;;5.20;85.18;101301.72;5131995;28;20131;-64
2022/01/30 06:11:37;;;;;;;21.08;6.25;;;;;;;5.18;84.74;101299.09;5131802;28;20031;-64
2022/01/30 06:14:03;;;;;;;20.92;6.50;;;;;;;5.20;85.01;101300.88;5131841;28;20091;-64
2022/01/30 06:16:28;;;;;;;15.25;5.97;;;;;;;5.19;84.58;101310.25;5131694;28;20427;-64
2022/01/30 06:18:54;;;;;;;20.50;6.40;;;;;;;5.20;84.70;101299.16;5113095;28;20424;-64
2022/01/30 06:21:22;;;;;;;16.65;5.85;;;;;;;5.20;84.58;101299.16;5131457;28;20031;-65
2022/01/30 06:23:48;;;;;;;22.05;7.57;;;;;;;5.20;84.37;101298.28;5131720;28;20035;-64
2022/01/30 06:26:14;;;;;;;19.50;7.05;;;;;;;5.20;84.54;101311.16;5096164;28;20031;-64
2022/01/30 06:28:39;;;;;;;21.45;6.45;;;;;;;5.17;84.46;101314.41;5113151;28;20040;-63
2022/01/30 06:31:07;;;;;;;23.00;7.05;;;;;;;5.18;84.10;101308.47;5131375;28;20032;-65
2022/01/30 06:33:32;;;;;;;23.98;6.35;;;;;;;5.17;84.84;101312.72;5095898;28;20516;-65
2022/01/30 06:36:01;;;;;;;17.50;7.28;;;;;;;5.17;84.78;101314.41;5131023;28;20035;-64
2022/01/30 06:38:26;;;;;;;24.25;7.25;;;;;;;5.18;84.76;101316.19;5131496;28;20039;-64
2022/01/30 06:40:51;;;;;;;20.73;7.20;;;;;;;5.17;84.66;101311.84;5131451;28;20126;-64
2022/01/30 06:43:20;;;;;;;20.88;6.40;;;;;;;5.17;84.85;101319.53;5131413;28;20080;-64
2022/01/30 06:48:17;;;;;;;22.45;6.18;;;;;;;5.18;84.57;101318.75;5131978;27;20350;-64
2022/01/30 06:50:43;;;;;;;18.23;6.05;;;;;;;5.16;84.52;101313.53;5096496;28;20031;-64
2022/01/30 06:53:08;;;;;;;22.75;7.35;;;;;;;5.14;84.40;101309.97;5131836;28;20035;-63
2022/01/30 06:55:42;;;;;;;30.38;6.45;;;;;;;5.13;84.32;101313.34;5131985;28;20056;-63
2022/01/30 06:58:14;;;;;;;30.05;8.10;;;;;;;5.12;84.24;101306.44;5096733;28;20028;-63
2022/01/30 07:00:40;;;;;;;21.20;6.57;;;;;;;5.13;84.40;101308.19;5096273;28;20031;-63
2022/01/30 07:03:09;;;;;;;20.63;5.55;;;;;;;5.13;84.66;101304.75;5131571;28;20031;-64
2022/01/30 07:05:37;;;;;;;29.73;6.82;;;;;;;5.13;84.49;101307.34;5113489;28;20039;-63
2022/01/30 07:08:05;;;;;;;17.70;6.78;;;;;;;5.12;84.35;101303.88;5131663;28;20166;-64
2022/01/30 07:10:38;;;;;;;21.10;6.93;;;;;;;5.12;84.51;101306.44;5131517;28;20031;-63
2022/01/30 07:13:11;;;;;;;25.65;6.63;;;;;;;5.13;84.37;101328.75;5131595;28;20027;-63
2022/01/30 07:15:36;;;;;;;19.02;5.55;;;;;;;5.13;84.39;101331.34;5113166;28;20046;-63
2022/01/30 07:18:02;;;;;;;18.98;6.05;;;;;;;5.11;84.34;101330.34;5131570;28;20039;-64
2022/01/30 07:20:28;;;;;;;18.50;5.60;;;;;;;5.10;83.89;101331.16;5113264;28;20036;-63
2022/01/30 07:22:53;;;;;;;20.80;6.65;;;;;;;5.10;84.03;101343.13;5113290;28;20088;-63
2022/01/30 07:25:19;;;;;;;21.33;6.22;;;;;;;5.08;84.49;101340.44;5113212;28;20058;-65
2022/01/30 07:27:47;;;;;;;20.15;7.25;;;;;;;5.07;84.16;101330.97;5131138;28;20178;-63
2022/01/30 07:30:15;;;;;;;19.13;6.18;;;;;;;5.09;84.27;101336.22;5131117;28;20056;-64
2022/01/30 07:32:40;;;;;;;18.48;5.63;;;;;;;5.08;84.63;101334.44;5113252;28;20039;-64
2022/01/30 07:35:06;;;;;;;16.92;5.60;;;;;;;5.09;84.75;101333.63;5131067;28;20035;-64
2022/01/30 07:37:33;;;;;;;19.13;6.18;;;;;;;5.10;84.67;101341.44;5112640;28;20038;-63
2022/01/30 07:40:02;;;;;;;18.23;6.03;;;;;;;5.11;84.62;101334.63;5112862;28;20035;-63
2022/01/30 07:42:27;;;;;;;17.17;5.93;;;;;;;5.10;84.58;101349.13;5131140;28;20073;-64
2022/01/30 07:44:56;;;;;;;21.02;6.05;;;;;;;5.11;84.41;101339.75;5112464;28;20031;-63
2022/01/30 07:47:22;;;;;;;17.40;6.60;;;;;;;5.07;84.11;101351.53;5146483;27;20134;-63
2022/01/30 07:49:53;;;;;;;18.00;5.88;;;;;;;5.09;84.63;101356.78;5130577;28;20542;-63
2022/01/30 07:52:20;;;;;;;13.32;5.32;;;;;;;5.09;84.05;101361.91;5112278;28;20551;-64
2022/01/30 07:54:46;;;;;;;17.02;5.50;;;;;;;5.09;84.77;101356.78;5095400;28;20406;-64
2022/01/30 07:57:14;;;;;;;17.58;5.47;;;;;;;5.09;84.33;101355.06;5095199;28;20035;-63
2022/01/30 07:59:41;;;;;;;13.55;5.75;;;;;;;5.09;84.11;101357.66;5098008;28;20035;-63
2022/01/30 08:02:06;;;;;;;18.92;7.20;;;;;;;5.07;84.46;101359.22;5098489;28;20057;-63
2022/01/30 08:04:38;;;;;;;18.52;6.32;;;;;;;5.08;84.23;101363.56;5117100;28;20028;-63
2022/01/30 08:07:04;;;;;;;23.20;5.85;;;;;;;5.08;84.21;101365.28;5081879;28;20031;-64
2022/01/30 08:09:30;;;;;;;17.65;5.63;;;;;;;5.08;84.41;101378.13;5116776;28;20046;-63
2022/01/30 08:11:56;;;;;;;18.52;6.13;;;;;;;5.08;84.20;101370.41;5098428;28;20386;-63
2022/01/30 08:14:21;;;;;;;12.93;5.72;;;;;;;5.07;84.20;101372.09;5081487;28;20035;-63
2022/01/30 08:16:47;;;;;;;22.73;5.53;;;;;;;5.08;84.21;101379.00;5116938;28;20031;-64
2022/01/30 08:19:16;;;;;;;18.75;6.20;;;;;;;5.07;84.17;101372.09;5081443;28;20027;-64
2022/01/30 08:21:41;;;;;;;19.65;6.88;;;;;;;5.07;84.08;101378.91;5098357;28;20035;-63
2022/01/30 08:24:07;;;;;;;23.05;6.00;;;;;;;5.05;84.04;101386.56;5098274;28;20122;-64
2022/01/30 08:26:32;;;;;;;19.85;5.55;;;;;;;5.03;84.65;101386.44;5116222;28;20036;-64
2022/01/30 08:28:58;;;;;;;22.40;6.50;;;;;;;5.03;84.47;101383.00;5116325;28;20486;-64
2022/01/30 08:31:23;;;;;;;18.15;5.85;;;;;;;5.01;84.57;101390.59;5116294;28;20114;-64
2022/01/30 08:33:49;;;;;;;19.70;6.15;;;;;;;5.02;84.41;101387.22;5116266;28;20035;-64
2022/01/30 08:36:17;;;;;;;14.25;6.53;;;;;;;5.01;84.51;101384.59;5116458;28;20080;-64
2022/01/30 08:38:44;;;;;;;18.30;6.60;;;;;;;5.02;84.60;101384.66;5097951;28;20035;-64
2022/01/30 08:41:13;;;;;;;18.33;6.05;;;;;;;5.04;83.93;101387.34;5097840;28;20040;-64
2022/01/30 08:43:43;;;;;;;25.50;6.13;;;;;;;5.04;84.57;101384.78;5098958;28;20024;-63
2022/01/30 08:46:09;;;;;;;20.23;5.72;;;;;;;5.04;84.77;101387.34;5115417;28;20483;-63
2022/01/30 08:48:34;;;;;;;19.02;5.32;;;;;;;5.03;84.49;101381.28;5097832;28;20074;-64
2022/01/30 08:51:00;;;;;;;20.58;6.53;;;;;;;5.03;84.27;101394.16;5115789;28;20042;-63
2022/01/30 08:53:26;;;;;;;20.05;5.65;;;;;;;5.02;84.38;101394.94;5115965;28;20082;-64
2022/01/30 08:55:55;;;;;;;14.00;5.72;;;;;;;5.04;84.68;101395.06;5097559;28;20055;-63
2022/01/30 08:58:22;;;;;;;19.92;6.10;;;;;;;5.02;84.07;101402.66;5115977;28;20111;-64
2022/01/30 09:00:48;;;;;;;15.07;5.88;;;;;;;5.01;84.33;101406.00;5116354;28;20088;-64
2022/01/30 09:03:13;;;;;;;20.83;6.32;;;;;;;5.00;84.06;101408.50;5115676;28;20036;-64
2022/01/30 09:05:41;;;;;;;17.63;6.38;;;;;;;5.00;84.04;101409.38;5115605;28;20101;-64
2022/01/30 09:08:09;;;;;;;19.23;5.88;;;;;;;4.99;84.50;101406.72;5097252;28;20039;-63
2022/01/30 09:10:39;;;;;;;23.02;7.28;;;;;;;4.99;84.42;101411.88;5114412;28;20543;-63
2022/01/30 09:13:05;;;;;;;17.67;5.88;;;;;;;4.97;84.56;101421.16;5080507;28;20176;-63
2022/01/30 09:15:37;;;;;;;20.95;6.15;;;;;;;4.96;84.36;101412.56;5115584;28;20173;-64
2022/01/30 09:18:08;;;;;;;16.35;5.80;;;;;;;4.96;84.07;101416.81;5115515;28;20040;-64
2022/01/30 09:20:34;;;;;;;18.50;5.55;;;;;;;4.97;84.17;101421.16;5080326;28;20437;-64
2022/01/30 09:22:59;;;;;;;15.15;5.50;;;;;;;4.96;84.48;101421.94;5114905;28;20032;-64
2022/01/30 09:25:24;;;;;;;18.35;6.10;;;;;;;4.95;83.89;101420.16;5115253;28;20075;-64
2022/01/30 09:27:50;;;;;;;23.83;6.35;;;;;;;4.94;84.16;101420.97;5115323;28;20049;-64
2022/01/30 09:30:16;;;;;;;18.27;5.65;;;;;;;4.96;84.41;101421.94;5097019;28;20034;-64
2022/01/30 09:32:47;;;;;;;19.00;5.63;;;;;;;4.97;84.76;101434.91;5096811;28;20039;-64
2022/01/30 09:35:12;;;;;;;26.13;6.60;;;;;;;4.98;83.92;101436.66;5115060;28;20551;-64
2022/01/30 09:37:40;;;;;;;22.95;7.07;;;;;;;4.97;84.02;101442.63;5114869;28;20036;-64
2022/01/30 09:40:08;;;;;;;16.10;5.15;;;;;;;4.97;84.33;101431.44;5114893;28;20081;-64
2022/01/30 09:42:34;;;;;;;20.17;6.70;;;;;;;4.97;84.12;101426.28;5079772;28;20439;-65
2022/01/30 09:45:04;;;;;;;21.15;6.05;;;;;;;4.97;83.64;101436.56;5096542;28;20498;-64
2022/01/30 09:47:30;;;;;;;23.50;6.97;;;;;;;4.96;84.04;101430.56;5093120;28;20515;-64
2022/01/30 09:49:58;;;;;;;28.40;7.03;;;;;;;4.97;84.09;101439.16;5094365;28;20035;-65
2022/01/30 09:52:24;;;;;;;23.58;5.97;;;;;;;4.95;84.47;101428.78;5076134;28;20164;-64
2022/01/30 09:54:50;;;;;;;18.40;5.75;;;;;;;4.95;84.12;101445.88;5094337;28;20148;-64
2022/01/30 09:57:16;;;;;;;19.20;5.68;;;;;;;4.93;84.35;101445.78;5076473;28;20135;-65
2022/01/30 09:59:42;;;;;;;18.20;5.45;;;;;;;4.95;84.09;101457.06;5076074;28;20073;-64
2022/01/30 10:02:08;;;;;;;27.70;6.50;;;;;;;4.95;83.90;101454.47;5094097;28;20024;-66
2022/01/30 10:04:35;;;;;;;14.98;5.45;;;;;;;4.98;84.01;101464.91;5109812;28;20042;-62
2022/01/30 10:07:12;;;;;;;26.83;7.63;;;;;;;4.98;84.03;101461.47;5075797;28;20032;-64
2022/01/30 10:09:44;;;;;;;22.33;5.72;;;;;;;5.01;84.12;101467.69;5093366;28;20185;-63
2022/01/30 10:12:20;;;;;;;24.35;7.05;;;;;;;5.02;84.38;101460.88;5094396;28;20040;-63
2022/01/30 10:14:51;;;;;;;26.33;7.63;;;;;;;5.05;83.73;101468.78;5094115;28;20044;-63
2022/01/30 10:17:25;;;;;;;21.60;6.20;;;;;;;5.06;84.18;101473.09;5092565;28;20071;-64
2022/01/30 10:20:09;;;;;;;19.15;5.97;;;;;;;5.07;83.95;101469.75;5093676;28;20490;-63
2022/01/30 10:22:57;;;;;;;18.97;7.37;;;;;;;5.10;83.76;101476.78;5093893;28;20040;-64
2022/01/30 10:25:34;;;;;;;25.23;6.40;;;;;;;5.11;83.99;101489.69;5092237;28;20073;-64
2022/01/30 10:28:16;;;;;;;21.42;6.78;;;;;;;5.11;84.29;101479.41;5093666;28;20035;-63
2022/01/30 10:30:55;;;;;;;28.85;8.63;;;;;;;5.14;83.76;101483.84;5092484;28;20028;-64
2022/01/30 10:33:22;;;;;;;30.17;6.05;;;;;;;5.14;84.39;101482.19;5092713;28;20454;-64
2022/01/30 10:35:55;;;;;;;26.08;6.85;;;;;;;5.14;84.14;101483.84;5075577;28;20042;-64
2022/01/30 10:38:35;;;;;;;24.95;7.35;;;;;;;5.14;84.05;101483.84;5093588;28;20024;-64
2022/01/30 10:41:15;;;;;;;26.23;6.57;;;;;;;5.14;83.80;101483.84;5109186;28;20468;-64
2022/01/30 10:43:56;;;;;;;27.58;6.20;;;;;;;5.13;83.53;101482.97;5093661;28;20036;-63
2022/01/30 10:46:31;;;;;;;25.25;6.68;;;;;;;5.13;84.05;101479.53;5075244;28;20076;-64
2022/01/30 10:48:58;;;;;;;27.50;6.95;;;;;;;5.12;83.63;101486.34;5109238;28;20065;-64
2022/01/30 10:51:25;;;;;;;23.38;5.93;;;;;;;5.13;83.86;101482.09;5075468;28;20071;-64
2022/01/30 10:53:54;;;;;;;27.58;6.57;;;;;;;5.12;83.84;101480.31;5109657;28;20073;-64
2022/01/30 10:57:27;;;;;;;22.50;6.25;;;;;;;5.11;83.96;101465.69;5132206;27;20362;-65
2022/01/30 10:59:56;;;;;;;22.80;7.43;;;;;;;5.11;84.14;101464.00;5132382;28;20074;-64
2022/01/30 11:02:25;;;;;;;24.83;6.30;;;;;;;5.11;83.92;101464.00;5096775;28;20046;-63
2022/01/30 11:05:01;;;;;;;18.42;6.80;;;;;;;5.11;83.93;101469.13;5131763;28;20599;-63
2022/01/30 11:07:29;;;;;;;23.20;7.07;;;;;;;5.10;84.24;101454.50;5131807;28;20069;-64
2022/01/30 11:10:08;;;;;;;26.77;5.90;;;;;;;5.11;83.53;101446.00;5131654;28;20088;-64
2022/01/30 11:12:44;;;;;;;23.08;6.00;;;;;;;5.12;83.82;101446.91;5096115;28;20046;-64
2022/01/30 11:15:34;;;;;;;21.13;6.30;;;;;;;5.10;83.89;101441.66;5113299;28;20114;-65
2022/01/30 11:18:03;;;;;;;23.40;6.07;;;;;;;5.12;83.66;101440.06;5147478;27;20495;-63
2022/01/30 11:20:30;;;;;;;17.85;5.65;;;;;;;5.14;84.17;101427.31;5113187;28;20039;-63
2022/01/30 11:23:02;;;;;;;21.15;6.30;;;;;;;5.12;83.93;101432.38;5096927;28;20035;-63
2022/01/30 11:25:35;;;;;;;18.42;5.20;;;;;;;5.12;83.60;101423.78;5096785;28;20051;-64
2022/01/30 11:28:03;;;;;;;17.00;5.50;;;;;;;5.11;83.04;101422.88;5113235;28;20046;-64
2022/01/30 11:30:31;;;;;;;20.42;6.13;;;;;;;5.14;83.86;101425.63;5095915;28;20045;-63
2022/01/30 11:32:58;;;;;;;22.83;6.22;;;;;;;5.16;84.19;101415.44;5131035;28;20027;-64
2022/01/30 11:35:23;;;;;;;26.90;6.53;;;;;;;5.16;83.59;101411.19;5095800;28;20126;-64
2022/01/30 11:37:52;;;;;;;22.10;6.75;;;;;;;5.17;83.73;101410.41;5131166;28;20061;-64
2022/01/30 11:40:19;;;;;;;24.90;7.00;;;;;;;5.17;84.12;101410.41;5131213;28;20043;-63
2022/01/30 11:42:49;;;;;;;28.05;7.38;;;;;;;5.16;83.45;101406.06;5131092;28;20074;-63
2022/01/30 11:45:27;;;;;;;19.05;6.47;;;;;;;5.17;83.78;101397.56;5095640;28;20038;-64
2022/01/30 11:48:00;;;;;;;18.05;5.82;;;;;;;5.17;83.54;101401.78;5095627;28;20027;-63
2022/01/30 11:50:33;;;;;;;16.52;6.05;;;;;;;5.19;84.05;101400.19;5131014;28;20091;-64
2022/01/30 11:53:28;;;;;;;24.33;7.47;;;;;;;5.18;84.19;101398.44;5112737;28;20161;-64
2022/01/30 11:56:00;;;;;;;21.30;6.88;;;;;;;5.20;83.34;101398.53;5125261;27;20513;-64
2022/01/30 11:58:46;;;;;;;22.67;5.78;;;;;;;5.21;83.96;101392.59;5131149;28;20490;-63
2022/01/30 12:01:27;;;;;;;22.50;6.63;;;;;;;5.23;83.28;101393.56;5112611;28;20543;-63
2022/01/30 12:04:04;;;;;;;29.15;7.72;;;;;;;5.25;83.93;101376.53;5130680;28;20066;-63
2022/01/30 12:06:50;;;;;;;29.10;6.78;;;;;;;5.24;83.79;101367.97;5112914;28;20442;-63
2022/01/30 12:09:16;;;;;;;22.27;7.47;;;;;;;5.25;84.15;101374.88;5116819;28;20039;-63
2022/01/30 12:11:47;;;;;;;25.60;5.95;;;;;;;5.27;83.55;101374.94;5116811;28;20119;-63
2022/01/30 12:14:22;;;;;;;19.60;6.00;;;;;;;5.30;83.63;101367.44;5081559;28;20036;-64
2022/01/30 12:16:51;;;;;;;25.75;5.95;;;;;;;5.30;83.75;101363.16;5116659;28;20027;-64
2022/01/30 12:19:42;;;;;;;21.58;5.40;;;;;;;5.32;83.33;101371.84;5081744;28;20066;-65
2022/01/30 12:22:16;;;;;;;21.98;6.35;;;;;;;5.33;83.20;101367.63;5081428;28;20490;-63
2022/01/30 12:24:43;;;;;;;25.77;6.47;;;;;;;5.37;83.33;101354.16;5098243;28;20085;-64
2022/01/30 12:27:12;;;;;;;28.25;7.60;;;;;;;5.36;83.42;101356.59;5098273;28;20046;-63
2022/01/30 12:29:40;;;;;;;19.10;6.38;;;;;;;5.37;83.94;101361.88;5116930;28;20105;-64
2022/01/30 12:32:24;;;;;;;20.27;6.75;;;;;;;5.36;83.21;101367.78;5081319;28;20074;-63
2022/01/30 12:34:58;;;;;;;20.45;5.35;;;;;;;5.35;83.69;101355.75;5116243;28;20387;-63
2022/01/30 12:37:36;;;;;;;24.23;8.02;;;;;;;5.34;83.64;101361.69;5081142;28;20040;-64